Air Resources Laboratory banner image
Air Resources Laboratory web site National Oceanic and Atmospheric Administration (NOAA)

in metar


KAID 110755Z AUTO 00000KT 1 1/2SM BR VV007 15/15 A3012 RMK AO2 VIS 1/2V5
 T01540149=
KBMG 110753Z AUTO 00000KT 9SM CLR 17/16 A3012 RMK AO2 SLP192 T01720161=
KEKM 110755Z AUTO 00000KT 10SM CLR 17/16 A3011 RMK AO2 T01710165=
KEVV 110754Z AUTO 36004KT 10SM OVC045 22/19 A3011 RMK AO2 SLP191 T02220189=
KEYE 110753Z AUTO 29005KT 10SM CLR 19/16 A3011 RMK AO2 SLP189 T01890161=
KFWA 110754Z 24003KT 10SM FEW047 FEW220 16/15 A3011 RMK AO2 SLP190 T01610150=
KGEZ 110753Z AUTO 00000KT 9SM CLR 17/16 A3011 RMK AO2 SLP189 T01720156=
KGSH 110753Z AUTO 00000KT 10SM CLR 17/16 A3010 RMK AO2 RAE05 SLP187 P0000
 T01720156 $=
KGUS 110756Z AUTO 00000KT 10SM CLR 16/15 A3010 RMK AO2 SLP192 T01580145=
KGYY 110755Z AUTO 00000KT 10SM CLR 20/18 A3011 RMK AO2 T01950180 PWINO=
KHLB 110755Z AUTO 00000KT 6SM BR CLR 16/16 A3012 RMK A01=
KHNB 110756Z AUTO 32003KT 10SM CLR 20/19 A3011 RMK AO2 SLP192 T02000194=
KHUF 110753Z 00000KT 6SM BR CLR 16/15 A3012 RMK AO2 SLP196 T01560150=
KIND 110754Z 32005KT 10SM CLR 18/16 A3011 RMK AO2 SLP191 T01830156 $=
KLAF 110754Z AUTO 00000KT 1 1/2SM BR FEW003 17/17 A3011 RMK AO2 VIS 3/4V2 1/2
 SLP192 T01670167=
KMIE 110753Z AUTO 00000KT 10SM CLR 17/14 A3011 RMK AO2 SLP187 T01670139=
KSBN 110754Z AUTO 23003KT 10SM CLR 18/16 A3011 RMK AO2 SLP189 T01830161 $=
KVPZ 110756Z AUTO 27004KT 10SM CLR 18/17 A3011 RMK AO2 SLP190 T01830167=